DIAMO05 EHWO-EHWO
Flight info
| Callsign | DIAMO05 |
|---|---|
| Flight time | 0h 8m |
| Altitude | 9000 |
| Route | WDT DCT GZR DCT DCT EHV DCT WDT |
| Aircraft | PC21/L-STUDY/L |
Departure
| Time | 2026-04-16 19:08 |
|---|---|
| Airport | Woensdrecht Air Base (EHWO) |
Arrival
| Time | 2026-04-16 19:16 |
|---|---|
| Airport | Woensdrecht Air Base (EHWO) |
| Time | Latitude | Longitude | Altitude | Speed | Heading |
|---|---|---|---|---|---|
| 2026-04-16 19:07 | 51.57792 | 4.81243 | 2642 ft | 221 kts | 290° |
| 2026-04-16 19:08 | 51.58393 | 4.78983 | 2217 ft | 217 kts | 290° |
| 2026-04-16 19:08 | 51.58984 | 4.76801 | 1983 ft | 204 kts | 291° |
| 2026-04-16 19:08 | 51.59512 | 4.74765 | 1949 ft | 189 kts | 282° |
| 2026-04-16 19:08 | 51.59376 | 4.72773 | 2034 ft | 178 kts | 244° |
| 2026-04-16 19:09 | 51.58595 | 4.71265 | 1976 ft | 177 kts | 219° |
| 2026-04-16 19:09 | 51.57506 | 4.70388 | 1972 ft | 175 kts | 200° |
| 2026-04-16 19:09 | 51.56349 | 4.69848 | 1987 ft | 170 kts | 198° |
| 2026-04-16 19:09 | 51.55212 | 4.69336 | 1947 ft | 169 kts | 199° |
| 2026-04-16 19:10 | 51.54146 | 4.68647 | 1913 ft | 165 kts | 211° |
| 2026-04-16 19:10 | 51.53217 | 4.67610 | 1905 ft | 162 kts | 220° |
| 2026-04-16 19:10 | 51.52333 | 4.66496 | 1885 ft | 160 kts | 220° |
| 2026-04-16 19:10 | 51.51586 | 4.65127 | 1637 ft | 171 kts | 244° |
| 2026-04-16 19:11 | 51.51336 | 4.63305 | 1696 ft | 164 kts | 264° |
| 2026-04-16 19:11 | 51.51269 | 4.61493 | 1709 ft | 160 kts | 258° |
| 2026-04-16 19:11 | 51.50915 | 4.59839 | 1779 ft | 153 kts | 250° |
| 2026-04-16 19:11 | 51.50584 | 4.58330 | 1885 ft | 128 kts | 250° |
| 2026-04-16 19:12 | 51.50302 | 4.57077 | 1893 ft | 117 kts | 250° |
| 2026-04-16 19:12 | 51.50024 | 4.55863 | 1918 ft | 118 kts | 248° |
| 2026-04-16 19:12 | 51.49711 | 4.54638 | 1923 ft | 119 kts | 248° |
| 2026-04-16 19:12 | 51.49416 | 4.53391 | 1925 ft | 121 kts | 249° |
| 2026-04-16 19:13 | 51.49113 | 4.52108 | 1951 ft | 127 kts | 249° |
| 2026-04-16 19:13 | 51.48770 | 4.50612 | 1986 ft | 164 kts | 250° |
| 2026-04-16 19:13 | 51.48357 | 4.48839 | 1899 ft | 163 kts | 249° |
| 2026-04-16 19:13 | 51.47969 | 4.47199 | 1686 ft | 157 kts | 250° |
| 2026-04-16 19:14 | 51.47576 | 4.45547 | 1470 ft | 159 kts | 250° |
| 2026-04-16 19:14 | 51.47194 | 4.43906 | 1272 ft | 151 kts | 251° |
| 2026-04-16 19:14 | 51.46859 | 4.42485 | 1073 ft | 132 kts | 251° |
| 2026-04-16 19:14 | 51.46540 | 4.41131 | 980 ft | 128 kts | 252° |
| 2026-04-16 19:15 | 51.46232 | 4.39841 | 764 ft | 120 kts | 251° |
| 2026-04-16 19:15 | 51.45948 | 4.38636 | 561 ft | 114 kts | 250° |
| 2026-04-16 19:15 | 51.45666 | 4.37426 | 363 ft | 115 kts | 250° |
| 2026-04-16 19:15 | 51.45387 | 4.36252 | 147 ft | 113 kts | 249° |
| 2026-04-16 19:16 | 51.45122 | 4.35144 | 54 ft | 92 kts | 250° |
| 2026-04-16 19:16 | 51.45003 | 4.34644 | 51 ft | 36 kts | 249° |
| 2026-04-16 19:16 | 51.44921 | 4.34283 | 53 ft | 33 kts | 250° |
| 2026-04-16 19:16 | 51.44840 | 4.33947 | 53 ft | 31 kts | 248° |
| 2026-04-16 19:17 | 51.44766 | 4.33629 | 54 ft | 30 kts | 249° |
| 2026-04-16 19:17 | 51.44703 | 4.33472 | 54 ft | 12 kts | 179° |
| 2026-04-16 19:17 | 51.44625 | 4.33516 | 55 ft | 12 kts | 160° |
| 2026-04-16 19:17 | 51.44591 | 4.33607 | 55 ft | 10 kts | 73° |
| 2026-04-16 19:18 | 51.44626 | 4.33750 | 54 ft | 21 kts | 68° |
| 2026-04-16 19:18 | 51.44686 | 4.34009 | 55 ft | 25 kts | 69° |
| 2026-04-16 19:18 | 51.44748 | 4.34271 | 54 ft | 25 kts | 69° |
| 2026-04-16 19:18 | 51.44809 | 4.34527 | 54 ft | 24 kts | 69° |
| 2026-04-16 19:19 | 51.44868 | 4.34777 | 55 ft | 24 kts | 69° |
| 2026-04-16 19:19 | 51.44924 | 4.34916 | 55 ft | 10 kts | 4° |
| 2026-04-16 19:19 | 51.44994 | 4.34879 | 53 ft | 13 kts | 339° |
| 2026-04-16 19:19 | 51.45145 | 4.34787 | 53 ft | 28 kts | 339° |
| 2026-04-16 19:20 | 51.45326 | 4.34676 | 56 ft | 27 kts | 339° |
| 2026-04-16 19:20 | 51.45498 | 4.34600 | 55 ft | 23 kts | 18° |
| 2026-04-16 19:20 | 51.45598 | 4.34777 | 55 ft | 11 kts | 53° |
| 2026-04-16 19:20 | 51.45633 | 4.34802 | 55 ft | 5 kts | 29° |
| 2026-04-16 19:21 | 51.45657 | 4.34852 | 55 ft | 5 kts | 49° |
| 2026-04-16 19:21 | 51.45673 | 4.34844 | 55 ft | 0 kts | 323° |